Time;durP1;ratioP1;P1;durP2;ratioP2;P2;SDS_P1;SDS_P2;PMS_P1;PMS_P2;Temp;Humidity;BMP_temperature;BMP_pressure;BME280_temperature;BME280_humidity;BME280_pressure;Samples;Min_cycle;Max_cycle;Signal;HPM_P1;HPM_P2
2023/01/12 05:02:34;;;;;;;7.13;2.47;;;7.60;99.90;;;;;;5015576;23;20948;-70
2023/01/12 05:05:04;;;;;;;9.50;2.43;;;7.60;99.90;;;;;;4966246;28;20452;-71
2023/01/12 05:07:31;;;;;;;6.00;2.70;;;7.50;99.90;;;;;;4965061;28;20465;-71
2023/01/12 05:12:42;;;;;;;6.07;2.10;;;7.60;99.90;;;;;;4946977;29;20532;-72
2023/01/12 05:15:09;;;;;;;5.23;2.10;;;7.60;99.90;;;;;;4946481;29;20492;-71
2023/01/12 05:17:37;;;;;;;3.23;1.67;;;7.60;99.90;;;;;;4946355;29;20635;-71
2023/01/12 05:20:05;;;;;;;6.13;2.13;;;7.60;99.90;;;;;;4946425;29;20472;-71
2023/01/12 05:22:32;;;;;;;6.83;2.40;;;7.70;99.90;;;;;;4946982;28;20469;-72
2023/01/12 05:24:58;;;;;;;7.33;2.00;;;7.70;99.90;;;;;;4946841;29;20458;-71
2023/01/12 05:27:25;;;;;;;9.60;2.50;;;7.70;99.90;;;;;;4946055;29;20775;-71
2023/01/12 05:29:52;;;;;;;5.90;1.93;;;7.70;99.90;;;;;;4948861;28;20457;-70
2023/01/12 05:32:19;;;;;;;5.80;2.20;;;7.80;99.90;;;;;;4950154;28;20476;-70
2023/01/12 05:34:47;;;;;;;8.40;2.33;;;7.80;99.90;;;;;;4950208;29;20492;-71
2023/01/12 05:37:14;;;;;;;14.43;2.60;;;7.80;99.90;;;;;;4949483;29;20472;-70
2023/01/12 05:39:40;;;;;;;5.40;2.17;;;7.80;99.90;;;;;;4950270;29;20946;-71
2023/01/12 05:44:52;;;;;;;8.70;2.83;;;7.80;99.90;;;;;;4969609;28;20420;-71
2023/01/12 05:47:18;;;;;;;7.00;3.50;;;7.80;99.90;;;;;;4969057;28;20460;-71
2023/01/12 05:49:46;;;;;;;5.67;2.27;;;7.80;99.90;;;;;;4969729;28;20460;-72
2023/01/12 05:52:13;;;;;;;7.33;1.97;;;7.80;99.90;;;;;;4969408;28;21023;-72
2023/01/12 05:54:40;;;;;;;10.77;2.13;;;7.80;99.90;;;;;;4969207;28;21147;-71
2023/01/12 05:57:07;;;;;;;7.33;2.10;;;7.80;99.90;;;;;;4968765;28;20460;-72
2023/01/12 05:59:33;;;;;;;10.30;2.30;;;7.90;99.90;;;;;;4969468;28;20452;-73
2023/01/12 06:02:00;;;;;;;8.83;2.10;;;7.90;99.90;;;;;;4969134;28;20491;-71
2023/01/12 06:04:27;;;;;;;7.93;2.30;;;7.90;99.90;;;;;;4969671;28;20444;-72
2023/01/12 06:06:55;;;;;;;7.50;2.30;;;7.90;99.90;;;;;;4968933;28;21286;-72
2023/01/12 06:09:22;;;;;;;7.90;2.00;;;7.90;99.90;;;;;;4969253;28;20819;-72
2023/01/12 06:14:34;;;;;;;9.03;2.60;;;7.90;99.90;;;;;;4969097;28;20703;-71
2023/01/12 06:17:01;;;;;;;13.60;2.67;;;7.90;99.90;;;;;;4968253;28;20515;-71
2023/01/12 06:19:27;;;;;;;7.53;2.27;;;7.90;99.90;;;;;;4968977;28;20539;-71
2023/01/12 06:21:58;;;;;;;8.77;2.57;;;8.00;99.90;;;;;;4969133;28;20468;-73
2023/01/12 06:24:26;;;;;;;9.13;2.87;;;7.90;99.90;;;;;;4968971;28;20809;-71
2023/01/12 06:26:53;;;;;;;7.73;2.17;;;8.00;99.90;;;;;;4968455;28;20477;-71
2023/01/12 06:29:20;;;;;;;10.97;2.47;;;7.90;99.90;;;;;;4968864;28;20452;-67
2023/01/12 06:31:47;;;;;;;10.97;2.27;;;7.90;99.90;;;;;;4968913;28;20499;-67
2023/01/12 06:34:14;;;;;;;6.43;2.20;;;8.00;99.90;;;;;;4969234;28;20500;-67
2023/01/12 06:36:41;;;;;;;7.63;2.20;;;8.00;99.90;;;;;;4968321;28;20466;-67
2023/01/12 06:39:11;;;;;;;11.57;2.10;;;8.00;99.90;;;;;;4968700;28;20464;-73
2023/01/12 06:44:22;;;;;;;13.20;2.33;;;8.00;99.90;;;;;;4968873;28;20546;-75
2023/01/12 06:46:49;;;;;;;6.53;1.70;;;8.00;99.90;;;;;;4968391;28;20455;-73
2023/01/12 06:49:16;;;;;;;8.40;1.90;;;8.00;99.90;;;;;;4968658;28;20457;-73
2023/01/12 06:51:43;;;;;;;14.13;2.50;;;8.00;99.90;;;;;;4968502;28;20492;-75
2023/01/12 06:54:11;;;;;;;11.70;2.23;;;8.00;99.90;;;;;;4968836;28;20492;-73
2023/01/12 06:56:38;;;;;;;15.53;2.50;;;8.00;99.90;;;;;;4968316;28;20467;-73
2023/01/12 06:59:04;;;;;;;6.33;2.00;;;8.00;99.90;;;;;;4968546;28;20457;-73
2023/01/12 07:01:31;;;;;;;7.57;1.80;;;8.00;99.90;;;;;;4968496;28;20596;-74
2023/01/12 07:03:58;;;;;;;8.93;2.20;;;8.00;99.90;;;;;;4968562;28;20911;-73
2023/01/12 07:06:25;;;;;;;7.20;2.03;;;8.00;99.90;;;;;;4967428;28;20960;-73
2023/01/12 07:08:51;;;;;;;8.17;1.90;;;8.10;99.90;;;;;;4968200;28;20959;-72
2023/01/12 07:11:19;;;;;;;8.93;2.27;;;8.10;99.90;;;;;;4968544;28;20473;-74
2023/01/12 07:13:46;;;;;;;10.23;2.27;;;8.10;99.90;;;;;;4968091;28;20844;-73
2023/01/12 07:16:13;;;;;;;5.73;2.00;;;8.10;99.90;;;;;;4967434;28;20469;-73
2023/01/12 07:18:40;;;;;;;7.03;2.10;;;8.10;99.90;;;;;;4967788;28;20464;-75
2023/01/12 07:21:08;;;;;;;5.57;1.60;;;8.10;99.90;;;;;;4967406;28;20481;-73
2023/01/12 07:23:40;;;;;;;4.13;1.60;;;8.10;99.90;;;;;;4968222;28;20797;-73
2023/01/12 07:26:07;;;;;;;8.83;1.90;;;8.10;99.90;;;;;;4967580;28;20527;-74
2023/01/12 07:28:35;;;;;;;7.13;1.90;;;8.10;99.90;;;;;;4967399;28;20906;-73
2023/01/12 07:31:05;;;;;;;6.17;1.80;;;8.10;99.90;;;;;;4967657;28;20499;-73
2023/01/12 07:33:33;;;;;;;10.27;1.83;;;8.10;99.90;;;;;;4967193;28;20467;-73
2023/01/12 07:36:04;;;;;;;10.47;2.23;;;8.20;99.90;;;;;;4966800;28;20953;-73
2023/01/12 07:38:32;;;;;;;5.33;1.97;;;8.20;99.90;;;;;;4967308;28;20452;-73
2023/01/12 07:40:59;;;;;;;8.73;2.27;;;8.20;99.90;;;;;;4966863;28;20480;-72
2023/01/12 07:43:26;;;;;;;7.73;1.80;;;8.20;99.90;;;;;;4967674;28;20516;-72
2023/01/12 07:45:55;;;;;;;9.20;1.90;;;8.20;99.90;;;;;;4966711;28;20452;-73
2023/01/12 07:48:23;;;;;;;6.20;2.20;;;8.30;99.90;;;;;;4967253;28;20457;-73
2023/01/12 07:50:50;;;;;;;12.57;2.13;;;8.30;99.90;;;;;;4967197;28;20528;-73
2023/01/12 07:53:17;;;;;;;11.57;2.20;;;8.40;99.90;;;;;;4966108;28;20471;-74
2023/01/12 07:55:46;;;;;;;7.80;2.03;;;8.40;99.90;;;;;;4967177;28;20504;-73
2023/01/12 07:58:13;;;;;;;8.70;1.90;;;8.50;99.90;;;;;;4966822;28;20461;-73
2023/01/12 08:00:40;;;;;;;3.80;1.60;;;8.50;99.90;;;;;;4966655;28;20496;-73
2023/01/12 08:03:10;;;;;;;6.17;1.60;;;8.50;99.90;;;;;;4966954;28;20657;-73
2023/01/12 08:05:38;;;;;;;5.33;2.17;;;8.50;99.90;;;;;;4966948;28;20451;-73
2023/01/12 08:08:06;;;;;;;4.20;2.00;;;8.50;99.90;;;;;;4966523;28;20463;-73
2023/01/12 08:10:33;;;;;;;9.80;2.20;;;8.50;99.90;;;;;;4967257;28;20480;-73
2023/01/12 08:12:59;;;;;;;10.70;2.17;;;8.50;99.90;;;;;;4966556;28;20451;-73
2023/01/12 08:15:28;;;;;;;7.17;1.93;;;8.50;99.90;;;;;;4966543;28;20500;-74
2023/01/12 08:17:59;;;;;;;5.20;1.80;;;8.60;99.90;;;;;;4966312;28;20471;-73
2023/01/12 08:20:32;;;;;;;5.80;2.30;;;8.60;99.90;;;;;;4966507;28;20467;-73
2023/01/12 08:23:03;;;;;;;6.50;1.80;;;8.60;99.90;;;;;;4967253;28;20459;-73
2023/01/12 08:25:34;;;;;;;4.73;1.93;;;8.60;99.90;;;;;;4966437;28;20488;-73
2023/01/12 08:28:07;;;;;;;6.83;1.87;;;8.60;99.90;;;;;;4966191;28;20840;-73
2023/01/12 08:30:34;;;;;;;4.10;1.90;;;8.60;99.90;;;;;;4966157;28;20487;-74
2023/01/12 08:33:02;;;;;;;4.23;1.77;;;8.60;99.90;;;;;;4966857;28;20463;-74
2023/01/12 08:35:34;;;;;;;7.93;1.70;;;8.60;99.90;;;;;;4966667;28;20506;-73
2023/01/12 08:38:03;;;;;;;5.73;2.07;;;8.60;99.90;;;;;;4965792;28;20441;-74
2023/01/12 08:43:11;;;;;;;5.07;1.80;;;8.60;99.90;;;;;;4965920;28;20581;-73
2023/01/12 08:45:37;;;;;;;4.70;1.77;;;8.60;99.90;;;;;;4966450;28;20456;-74
2023/01/12 08:48:05;;;;;;;9.27;2.27;;;8.60;99.90;;;;;;4966093;28;20463;-73
2023/01/12 08:50:33;;;;;;;4.67;1.20;;;8.60;99.90;;;;;;4965724;28;20456;-73
2023/01/12 08:53:00;;;;;;;6.73;1.87;;;8.60;99.90;;;;;;4966365;28;20456;-73
2023/01/12 08:55:26;;;;;;;6.50;1.70;;;8.60;99.90;;;;;;4966174;28;20543;-73
2023/01/12 08:57:58;;;;;;;7.63;2.03;;;8.60;99.90;;;;;;4966334;28;20769;-73
2023/01/12 09:00:25;;;;;;;7.97;2.10;;;8.60;99.90;;;;;;4966118;28;20441;-72
2023/01/12 09:02:52;;;;;;;12.33;3.20;;;8.60;99.90;;;;;;4966849;28;20440;-73
2023/01/12 09:05:19;;;;;;;5.07;1.60;;;8.60;99.90;;;;;;4970161;28;20459;-73
2023/01/12 09:07:47;;;;;;;6.83;1.80;;;8.70;99.90;;;;;;4969869;28;20462;-73
2023/01/12 09:10:15;;;;;;;7.07;2.07;;;8.70;99.90;;;;;;4970439;28;20819;-73
2023/01/12 09:12:41;;;;;;;5.97;1.47;;;8.70;99.90;;;;;;4970474;28;20466;-72
2023/01/12 09:15:09;;;;;;;7.53;2.10;;;8.70;99.90;;;;;;4969803;28;20887;-73
2023/01/12 09:17:36;;;;;;;6.83;2.03;;;8.70;99.90;;;;;;4969365;28;20456;-73
2023/01/12 09:20:03;;;;;;;5.90;2.07;;;8.70;99.90;;;;;;4969870;28;20452;-73
2023/01/12 09:22:30;;;;;;;9.03;1.97;;;8.70;99.90;;;;;;4970207;28;20481;-73
2023/01/12 09:24:58;;;;;;;4.97;1.87;;;8.70;99.90;;;;;;4969702;28;20460;-73
2023/01/12 09:27:25;;;;;;;8.90;1.80;;;8.70;99.90;;;;;;4969208;28;20464;-72
2023/01/12 09:29:51;;;;;;;9.93;2.07;;;8.70;99.90;;;;;;4970233;28;20459;-74
2023/01/12 09:32:21;;;;;;;4.03;1.40;;;8.80;99.90;;;;;;4969665;28;20490;-73
2023/01/12 09:34:48;;;;;;;3.00;1.23;;;8.80;99.90;;;;;;4969805;28;20503;-73
2023/01/12 09:37:15;;;;;;;3.77;1.60;;;8.80;99.90;;;;;;4969180;28;20551;-73
2023/01/12 09:39:42;;;;;;;6.17;1.60;;;8.80;99.90;;;;;;4969513;28;21050;-75
2023/01/12 09:48:00;;;;;;;5.00;1.60;;;8.80;99.90;;;;;;4969260;28;20428;-74
2023/01/12 09:50:32;;;;;;;8.57;2.67;;;8.80;99.90;;;;;;4969270;28;20475;-75
2023/01/12 09:53:02;;;;;;;6.33;2.57;;;8.80;99.90;;;;;;4969442;28;20994;-73
2023/01/12 09:55:35;;;;;;;4.67;1.70;;;8.80;99.90;;;;;;4969334;28;20498;-73
2023/01/12 09:58:51;;;;;;;5.77;2.10;;;8.90;99.90;;;;;;4969077;28;20461;-73
2023/01/12 10:01:19;;;;;;;4.93;2.00;;;8.90;99.90;;;;;;4958862;28;20488;-74
2023/01/12 10:03:46;;;;;;;7.60;1.70;;;8.90;99.90;;;;;;4969662;28;20456;-73
2023/01/12 10:06:15;;;;;;;6.40;2.23;;;8.90;99.90;;;;;;4968912;28;20491;-73
2023/01/12 10:08:45;;;;;;;5.40;1.70;;;9.00;99.90;;;;;;4969331;28;20448;-74
2023/01/12 10:11:16;;;;;;;3.40;1.83;;;9.00;99.90;;;;;;4969505;28;20476;-75
2023/01/12 10:14:13;;;;;;;4.40;1.40;;;9.10;99.90;;;;;;4969625;28;20814;-73
2023/01/12 10:16:51;;;;;;;3.63;1.52;;;9.10;99.90;;;;;;4965990;28;20469;-74
2023/01/12 10:19:25;;;;;;;8.00;1.90;;;9.10;99.90;;;;;;4969195;28;20205;-74
2023/01/12 10:21:54;;;;;;;4.73;1.90;;;9.20;99.90;;;;;;4969534;28;20492;-73
2023/01/12 10:24:22;;;;;;;2.83;1.50;;;9.20;99.90;;;;;;4968904;28;20464;-73
2023/01/12 10:26:59;;;;;;;6.40;1.57;;;9.20;99.90;;;;;;4968103;28;20456;-73
2023/01/12 10:29:28;;;;;;;8.07;1.77;;;9.10;99.90;;;;;;4968560;28;20931;-73
2023/01/12 10:31:55;;;;;;;5.63;1.83;;;9.20;99.90;;;;;;4968992;28;21342;-73
2023/01/12 10:34:22;;;;;;;5.60;1.70;;;9.20;99.90;;;;;;4969090;28;20464;-71
2023/01/12 10:36:56;;;;;;;7.50;1.67;;;9.30;99.90;;;;;;4968142;28;20496;-73
2023/01/12 10:39:30;;;;;;;10.13;1.53;;;9.30;99.90;;;;;;4969200;28;20464;-74
2023/01/12 10:45:15;;;;;;;3.20;1.50;;;9.30;99.90;;;;;;4968632;28;20420;-73
2023/01/12 10:47:43;;;;;;;7.20;1.77;;;9.40;99.90;;;;;;4968285;28;20524;-72
2023/01/12 10:50:21;;;;;;;5.47;1.97;;;9.40;99.90;;;;;;4968866;28;20936;-73
2023/01/12 10:52:50;;;;;;;8.00;2.00;;;9.40;99.90;;;;;;4969093;28;20436;-74
2023/01/12 10:55:19;;;;;;;11.77;2.90;;;9.40;99.90;;;;;;4968957;28;20547;-74
2023/01/12 10:57:47;;;;;;;4.43;1.53;;;9.50;99.90;;;;;;4967793;28;20868;-73
2023/01/12 11:00:21;;;;;;;4.80;2.03;;;9.50;99.90;;;;;;4968781;28;20464;-73
2023/01/12 11:02:49;;;;;;;7.67;2.00;;;9.50;99.90;;;;;;4968471;28;20519;-73
2023/01/12 11:05:34;;;;;;;3.03;1.27;;;9.60;99.90;;;;;;4968722;28;20452;-73
2023/01/12 11:08:01;;;;;;;4.17;1.50;;;9.60;99.90;;;;;;4967118;28;20475;-73
2023/01/12 11:10:30;;;;;;;6.70;1.97;;;9.60;99.90;;;;;;4968369;28;20463;-73
2023/01/12 11:12:59;;;;;;;7.47;1.50;;;9.60;99.90;;;;;;4968230;28;20480;-72
2023/01/12 11:15:28;;;;;;;4.17;1.50;;;9.70;99.90;;;;;;4968153;28;20496;-73
2023/01/12 11:18:07;;;;;;;3.90;2.10;;;9.70;99.90;;;;;;4967557;28;20469;-72
2023/01/12 11:20:38;;;;;;;4.87;1.53;;;9.70;99.90;;;;;;4967099;28;20476;-72
2023/01/12 11:23:10;;;;;;;4.10;1.60;;;9.70;99.90;;;;;;4968088;28;20488;-73
2023/01/12 11:25:42;;;;;;;4.53;1.53;;;9.80;99.90;;;;;;4968283;28;20455;-72
2023/01/12 11:28:15;;;;;;;6.83;1.70;;;9.80;99.90;;;;;;4966585;28;20969;-72
2023/01/12 11:30:51;;;;;;;2.50;1.20;;;9.80;99.90;;;;;;4968240;28;20560;-72
2023/01/12 11:33:23;;;;;;;5.13;1.70;;;9.80;99.90;;;;;;4968263;28;21037;-74
2023/01/12 11:35:56;;;;;;;2.20;1.60;;;9.80;99.90;;;;;;4967801;28;20507;-74
2023/01/12 11:38:27;;;;;;;3.33;1.13;;;9.80;99.90;;;;;;4967778;28;20453;-73
2023/01/12 11:40:57;;;;;;;9.20;1.50;;;9.90;99.90;;;;;;4967889;28;20483;-73
2023/01/12 11:43:49;;;;;;;5.23;1.40;;;9.90;99.90;;;;;;4967878;28;20439;-73
2023/01/12 11:46:23;;;;;;;9.00;1.47;;;9.90;99.90;;;;;;4966951;28;20448;-74
2023/01/12 11:49:00;;;;;;;1.97;1.20;;;9.90;99.90;;;;;;4963955;28;20519;-73
2023/01/12 11:51:27;;;;;;;2.73;1.57;;;9.90;99.90;;;;;;4966612;28;20479;-73
2023/01/12 11:53:55;;;;;;;9.00;1.40;;;9.90;99.90;;;;;;4966911;28;20462;-72
2023/01/12 11:56:32;;;;;;;3.90;1.40;;;9.90;99.90;;;;;;4967202;28;20551;-72
2023/01/12 11:59:09;;;;;;;1.90;1.03;;;9.90;99.90;;;;;;4967269;28;20452;-72
2023/01/12 12:01:44;;;;;;;6.97;1.87;;;9.90;99.90;;;;;;4967195;28;20484;-73
2023/01/12 12:04:25;;;;;;;4.90;1.40;;;9.90;99.90;;;;;;4967266;28;20451;-73
2023/01/12 12:07:03;;;;;;;2.70;1.30;;;10.00;99.90;;;;;;4966605;28;20832;-72
2023/01/12 12:09:41;;;;;;;2.40;1.10;;;10.00;99.90;;;;;;4967004;28;20447;-73
2023/01/12 12:12:17;;;;;;;5.70;1.17;;;10.00;99.90;;;;;;4967475;28;20487;-72
2023/01/12 12:15:03;;;;;;;1.97;1.00;;;10.10;99.90;;;;;;4966796;28;20459;-72
2023/01/12 12:17:44;;;;;;;2.70;1.13;;;10.10;99.90;;;;;;4966759;28;20480;-72
2023/01/12 12:20:25;;;;;;;2.07;1.20;;;10.10;99.90;;;;;;4967206;28;20456;-72
2023/01/12 12:23:08;;;;;;;1.30;1.10;;;10.10;99.90;;;;;;4967074;28;20496;-73
2023/01/12 12:25:46;;;;;;;1.30;1.20;;;10.20;99.90;;;;;;4967033;28;20448;-72
2023/01/12 12:28:30;;;;;;;2.60;1.03;;;10.20;99.90;;;;;;4966885;28;20441;-73
2023/01/12 12:31:10;;;;;;;1.80;1.10;;;10.30;99.90;;;;;;4966862;28;20472;-73
2023/01/12 12:33:54;;;;;;;1.90;1.03;;;10.30;99.90;;;;;;4966931;28;20447;-74
2023/01/12 12:36:30;;;;;;;9.03;1.70;;;10.40;99.90;;;;;;4966579;28;20579;-73
2023/01/12 12:39:30;;;;;;;3.70;1.23;;;10.50;99.90;;;;;;4966765;28;20487;-73
2023/01/12 12:47:57;;;;;;;2.00;0.90;;;10.50;99.90;;;;;;4966193;28;20500;-73
2023/01/12 12:50:29;;;;;;;3.97;1.07;;;10.50;99.90;;;;;;4967103;28;20451;-73
2023/01/12 12:53:16;;;;;;;1.53;0.93;;;10.50;99.90;;;;;;4967109;28;20445;-74
2023/01/12 12:55:43;;;;;;;3.30;1.10;;;10.50;99.90;;;;;;4966979;28;20484;-74
2023/01/12 12:58:38;;;;;;;1.17;0.87;;;10.50;99.90;;;;;;4966155;28;20460;-73
2023/01/12 13:01:44;;;;;;;2.10;1.20;;;10.60;99.90;;;;;;4966220;28;20488;-72
2023/01/12 13:04:13;;;;;;;4.07;1.40;;;10.60;99.90;;;;;;4965575;28;20459;-74
2023/01/12 13:06:46;;;;;;;3.23;1.27;;;10.50;99.90;;;;;;4965850;28;20465;-72
2023/01/12 13:09:38;;;;;;;2.50;1.20;;;10.50;99.90;;;;;;4966655;28;20455;-72
2023/01/12 13:12:30;;;;;;;2.73;1.30;;;10.50;99.90;;;;;;4966651;28;20504;-73
2023/01/12 13:15:20;;;;;;;2.70;1.50;;;10.50;99.90;;;;;;4966599;28;20882;-72
2023/01/12 13:17:49;;;;;;;1.27;1.00;;;10.60;99.90;;;;;;4965835;28;20492;-73
2023/01/12 13:20:48;;;;;;;2.00;1.13;;;10.60;99.90;;;;;;4965284;28;20474;-73
2023/01/12 13:23:45;;;;;;;1.53;0.93;;;10.60;99.90;;;;;;4965416;28;20460;-74
2023/01/12 13:26:45;;;;;;;1.83;0.90;;;10.70;99.90;;;;;;4965098;28;20440;-72
2023/01/12 13:29:37;;;;;;;6.40;1.37;;;10.70;99.90;;;;;;4965929;28;20482;-72
2023/01/12 13:32:36;;;;;;;2.13;1.20;;;10.70;99.90;;;;;;4965429;28;20485;-73
2023/01/12 13:35:04;;;;;;;1.13;1.03;;;10.70;99.90;;;;;;4965449;28;20457;-72
2023/01/12 13:37:48;;;;;;;0.80;0.80;;;10.60;99.90;;;;;;4965041;28;20496;-74
2023/01/12 13:40:22;;;;;;;1.73;0.97;;;10.50;99.90;;;;;;4965156;28;20447;-72
2023/01/12 13:45:36;;;;;;;1.27;0.80;;;10.50;99.90;;;;;;4965245;28;20428;-73
2023/01/12 13:48:06;;;;;;;1.53;1.20;;;10.40;99.90;;;;;;4964440;28;20453;-72
2023/01/12 13:50:35;;;;;;;1.47;1.20;;;10.40;99.90;;;;;;4966625;28;21011;-72
2023/01/12 13:53:03;;;;;;;1.20;1.10;;;10.40;99.90;;;;;;4968953;28;20456;-74
2023/01/12 13:55:35;;;;;;;3.80;1.27;;;10.40;99.90;;;;;;4968771;28;20460;-73
2023/01/12 13:58:04;;;;;;;1.07;0.77;;;10.50;99.90;;;;;;4968199;28;20519;-73
2023/01/12 14:00:33;;;;;;;1.00;0.90;;;10.40;99.90;;;;;;4968393;28;20547;-72
2023/01/12 14:03:03;;;;;;;1.20;1.10;;;10.40;99.90;;;;;;4968363;28;20467;-73
2023/01/12 14:05:56;;;;;;;2.13;0.90;;;10.40;99.90;;;;;;4968819;28;20514;-72
2023/01/12 14:08:44;;;;;;;2.23;1.13;;;10.40;99.90;;;;;;4968059;28;21020;-74
2023/01/12 14:11:36;;;;;;;1.70;0.90;;;10.40;99.90;;;;;;4968157;28;20486;-72
2023/01/12 14:19:58;;;;;;;4.30;1.10;;;10.40;99.90;;;;;;4968753;28;20457;-72
2023/01/12 14:22:25;;;;;;;1.13;0.90;;;10.30;99.90;;;;;;4968953;28;21137;-74
2023/01/12 14:24:51;;;;;;;2.20;1.10;;;10.40;99.90;;;;;;4969471;28;20554;-72
2023/01/12 14:27:23;;;;;;;1.97;1.03;;;10.40;99.90;;;;;;4968780;28;20456;-72
2023/01/12 14:29:50;;;;;;;1.67;1.00;;;10.30;99.90;;;;;;4969237;28;20456;-72
2023/01/12 14:32:20;;;;;;;0.87;0.87;;;10.30;99.90;;;;;;4969171;28;20472;-72
2023/01/12 14:34:53;;;;;;;1.87;1.00;;;10.30;99.90;;;;;;4969161;28;20467;-72
2023/01/12 14:37:28;;;;;;;4.87;1.20;;;10.30;99.90;;;;;;4968293;28;21366;-72
2023/01/12 14:39:55;;;;;;;1.57;1.00;;;10.30;99.90;;;;;;4969079;28;20952;-72
2023/01/12 14:48:26;;;;;;;1.90;0.90;;;10.30;99.90;;;;;;4937697;28;20452;-72
2023/01/12 14:51:01;;;;;;;4.70;1.10;;;10.30;99.90;;;;;;4967836;28;20472;-72
2023/01/12 14:53:39;;;;;;;1.87;0.93;;;10.30;99.90;;;;;;4967730;28;20479;-73
2023/01/12 14:56:09;;;;;;;2.77;1.30;;;10.30;99.90;;;;;;4967793;28;20444;-72
2023/01/12 14:58:37;;;;;;;2.40;1.40;;;10.20;99.90;;;;;;4968288;28;20456;-72
2023/01/12 15:01:05;;;;;;;2.70;1.30;;;10.20;99.90;;;;;;4967914;28;20499;-72
2023/01/12 15:03:32;;;;;;;2.07;1.20;;;10.20;99.90;;;;;;4967885;28;20830;-72
2023/01/12 15:05:59;;;;;;;4.40;1.10;;;10.20;99.90;;;;;;4967831;28;20453;-73
2023/01/12 15:08:26;;;;;;;1.30;1.20;;;10.30;99.90;;;;;;4967723;28;20456;-72
2023/01/12 15:10:58;;;;;;;1.60;1.00;;;10.20;99.90;;;;;;4968291;28;20580;-72
2023/01/12 15:13:27;;;;;;;1.73;1.10;;;10.20;99.90;;;;;;4967681;28;20991;-74
2023/01/12 15:27:15;;;;;;;2.93;1.10;;;10.20;99.90;;;;;;4911882;28;20446;-72
2023/01/12 15:29:42;;;;;;;2.03;1.20;;;10.10;99.90;;;;;;4967428;28;20474;-72
2023/01/12 15:32:14;;;;;;;2.00;1.30;;;10.20;99.90;;;;;;4967326;28;20484;-72
2023/01/12 15:34:40;;;;;;;5.40;1.30;;;10.20;99.90;;;;;;4967151;28;20459;-72
2023/01/12 15:37:09;;;;;;;1.30;1.20;;;10.10;99.90;;;;;;4966642;28;20859;-72
2023/01/12 15:39:36;;;;;;;2.50;1.10;;;10.10;99.90;;;;;;4967197;28;20982;-74
2023/01/12 15:42:20;;;;;;;1.90;1.10;;;10.10;99.90;;;;;;4967215;28;20480;-72
2023/01/12 15:44:48;;;;;;;2.20;1.10;;;10.20;99.90;;;;;;4967315;28;20510;-72
2023/01/12 15:47:18;;;;;;;2.00;1.00;;;10.20;99.90;;;;;;4966187;28;20746;-72
2023/01/12 15:49:46;;;;;;;1.70;1.20;;;10.10;99.90;;;;;;4967096;28;20460;-72
2023/01/12 15:52:14;;;;;;;1.90;1.00;;;10.20;99.90;;;;;;4966938;28;20476;-74
2023/01/12 15:54:41;;;;;;;2.87;1.20;;;10.20;99.90;;;;;;4967567;28;20467;-73
2023/01/12 15:57:10;;;;;;;1.77;1.10;;;10.20;99.90;;;;;;4966101;28;20492;-72
2023/01/12 15:59:37;;;;;;;5.70;1.10;;;10.20;99.90;;;;;;4967207;28;20456;-72
2023/01/12 16:02:04;;;;;;;2.27;1.40;;;10.20;99.90;;;;;;4966616;28;20496;-72
2023/01/12 16:04:32;;;;;;;2.03;1.20;;;10.20;99.90;;;;;;4967063;28;20460;-72
2023/01/12 16:06:59;;;;;;;6.63;1.53;;;10.20;99.90;;;;;;4965090;28;20457;-72
2023/01/12 16:09:26;;;;;;;1.10;1.00;;;10.20;99.90;;;;;;4966599;28;20464;-72
2023/01/12 16:11:53;;;;;;;2.40;1.17;;;10.20;99.90;;;;;;4966656;28;20476;-72
2023/01/12 16:14:19;;;;;;;3.23;1.00;;;10.20;99.90;;;;;;4966351;28;20467;-74
2023/01/12 16:16:46;;;;;;;2.00;1.10;;;10.20;99.90;;;;;;4966257;28;20496;-72
2023/01/12 16:19:51;;;;;;;1.63;1.30;;;10.10;99.90;;;;;;4966594;28;20814;-72
2023/01/12 16:22:22;;;;;;;1.57;1.00;;;10.10;99.90;;;;;;4966460;28;20516;-70
2023/01/12 16:24:49;;;;;;;2.40;2.20;;;10.10;99.90;;;;;;4966474;28;20463;-71
2023/01/12 16:34:00;;;;;;;3.37;1.37;;;10.00;99.90;;;;;;4967608;28;20423;-75
2023/01/12 16:36:27;;;;;;;1.70;1.23;;;10.00;99.90;;;;;;4966600;28;20457;-72
2023/01/12 16:38:58;;;;;;;2.73;1.27;;;10.00;99.90;;;;;;4967346;28;20464;-70
2023/01/12 16:41:24;;;;;;;1.87;1.37;;;10.00;99.90;;;;;;4969262;28;20479;-77
2023/01/12 16:43:53;;;;;;;1.40;1.30;;;10.00;99.90;;;;;;4967791;28;20460;-78
2023/01/12 16:46:21;;;;;;;2.10;1.40;;;10.00;99.90;;;;;;4966680;28;20865;-78
2023/01/12 16:48:47;;;;;;;2.47;1.40;;;10.00;99.90;;;;;;4969325;28;20906;-79
2023/01/12 16:51:16;;;;;;;3.13;1.30;;;10.00;99.90;;;;;;4969501;28;20478;-76
2023/01/12 16:53:43;;;;;;;3.03;1.10;;;10.00;99.90;;;;;;4968925;28;20463;-75
2023/01/12 16:56:14;;;;;;;3.70;1.50;;;10.00;99.90;;;;;;4968460;28;20559;-77
2023/01/12 16:58:46;;;;;;;4.27;1.47;;;10.10;99.90;;;;;;4969038;28;20511;-77
2023/01/12 17:01:15;;;;;;;2.27;1.63;;;10.00;99.90;;;;;;4968706;28;20484;-79
2023/01/12 17:03:42;;;;;;;3.90;1.40;;;10.00;99.90;;;;;;4968347;28;20456;-76
2023/01/12 17:06:10;;;;;;;4.00;1.80;;;10.00;99.90;;;;;;4967761;28;20459;-75
2023/01/12 17:08:37;;;;;;;3.77;1.57;;;10.00;99.90;;;;;;4967841;28;20448;-76
2023/01/12 17:11:05;;;;;;;1.63;1.17;;;10.00;99.90;;;;;;4967917;28;20980;-76
2023/01/12 17:13:34;;;;;;;2.00;1.10;;;10.00;99.90;;;;;;4968560;28;20476;-76
2023/01/12 17:16:00;;;;;;;6.00;1.97;;;10.00;99.90;;;;;;4967767;28;20535;-75
2023/01/12 17:18:27;;;;;;;2.40;1.30;;;10.00;99.90;;;;;;4968029;28;20500;-76
2023/01/12 17:21:00;;;;;;;4.43;1.27;;;10.00;99.90;;;;;;4967804;28;20486;-75
2023/01/12 17:23:27;;;;;;;4.07;1.90;;;10.00;99.90;;;;;;4967078;28;21055;-75
2023/01/12 17:25:54;;;;;;;3.40;1.50;;;10.00;99.90;;;;;;4971008;28;20448;-76
2023/01/12 17:28:21;;;;;;;7.93;1.97;;;10.00;99.90;;;;;;4971563;28;20482;-77
2023/01/12 17:30:49;;;;;;;4.57;1.40;;;10.00;99.90;;;;;;4971640;28;20522;-76
2023/01/12 17:33:16;;;;;;;3.20;1.53;;;10.00;99.90;;;;;;4971488;28;20459;-75
2023/01/12 17:35:42;;;;;;;1.57;1.47;;;10.00;99.90;;;;;;4971573;28;21172;-75
2023/01/12 17:38:09;;;;;;;4.30;1.80;;;10.00;99.90;;;;;;4972916;28;20502;-77
2023/01/12 17:40:39;;;;;;;4.87;2.07;;;10.00;99.90;;;;;;4972372;28;21014;-75
2023/01/12 17:43:05;;;;;;;3.90;2.67;;;10.00;99.90;;;;;;4970722;28;21167;-75
2023/01/12 17:45:32;;;;;;;3.47;1.70;;;10.00;99.90;;;;;;4970351;28;20460;-74
2023/01/12 17:48:01;;;;;;;3.50;1.93;;;10.00;99.90;;;;;;4971150;28;20488;-72
2023/01/12 17:50:30;;;;;;;4.53;2.13;;;9.90;99.90;;;;;;4970854;28;20483;-71
2023/01/12 17:52:57;;;;;;;5.60;1.90;;;9.90;99.90;;;;;;4972354;28;20461;-78
2023/01/12 17:55:24;;;;;;;2.07;1.60;;;9.90;99.90;;;;;;4972821;28;20456;-75
2023/01/12 17:57:50;;;;;;;1.73;1.23;;;9.90;99.90;;;;;;4971455;28;20500;-76
2023/01/12 18:00:18;;;;;;;2.83;1.80;;;9.90;99.90;;;;;;4970595;28;20451;-75
2023/01/12 18:02:45;;;;;;;4.87;2.07;;;9.90;99.90;;;;;;4970387;28;20458;-77
2023/01/12 18:05:13;;;;;;;4.60;1.90;;;10.00;99.90;;;;;;4971832;28;20464;-78
2023/01/12 18:07:40;;;;;;;5.60;2.80;;;10.00;99.90;;;;;;4971120;28;20462;-78
2023/01/12 18:10:10;;;;;;;4.07;2.03;;;9.90;99.90;;;;;;4972011;28;20449;-79
2023/01/12 18:12:37;;;;;;;5.37;2.70;;;9.90;99.90;;;;;;4971835;28;20533;-79
2023/01/12 18:15:04;;;;;;;2.37;1.70;;;9.90;99.90;;;;;;4971044;28;20459;-77
2023/01/12 18:17:31;;;;;;;3.10;2.03;;;10.00;99.90;;;;;;4969735;28;20507;-77
2023/01/12 18:19:58;;;;;;;4.13;1.60;;;10.00;99.90;;;;;;4970646;28;20456;-77
2023/01/12 18:22:26;;;;;;;3.17;2.23;;;10.00;99.90;;;;;;4970562;28;20507;-76
2023/01/12 18:24:53;;;;;;;3.43;1.67;;;10.00;99.90;;;;;;4970591;28;20479;-76
2023/01/12 18:27:20;;;;;;;2.87;2.00;;;10.00;99.90;;;;;;4969806;28;20452;-75
2023/01/12 18:29:47;;;;;;;4.70;1.70;;;10.00;99.90;;;;;;4969059;28;20551;-71
2023/01/12 18:32:13;;;;;;;2.03;1.30;;;10.00;99.90;;;;;;4969366;28;20852;-71
2023/01/12 18:34:41;;;;;;;2.00;1.23;;;10.00;99.90;;;;;;4969301;28;20835;-71
2023/01/12 18:37:08;;;;;;;2.43;1.30;;;10.00;99.90;;;;;;4967653;28;20469;-71
2023/01/12 18:39:36;;;;;;;4.70;1.57;;;10.00;99.90;;;;;;4968858;28;20460;-71
2023/01/12 18:44:48;;;;;;;1.73;1.40;;;10.00;99.90;;;;;;4968940;28;20415;-71
2023/01/12 18:53:21;;;;;;;3.73;1.20;;;10.00;99.90;;;;;;4968142;28;20440;-71
2023/01/12 18:55:33;;;;;;;1.70;1.30;;;10.00;99.90;;;;;;4967640;28;20834;-72
2023/01/12 18:58:00;;;;;;;2.00;1.20;;;10.00;99.90;;;;;;4967085;28;20605;-71
2023/01/12 19:00:29;;;;;;;2.40;1.30;;;10.00;99.90;;;;;;4967827;28;20460;-73
2023/01/12 19:02:56;;;;;;;1.20;1.10;;;10.00;99.90;;;;;;4968148;28;20836;-72
2023/01/12 19:05:31;;;;;;;3.13;1.30;;;10.00;99.90;;;;;;4968059;28;21000;-72
2023/01/12 19:09:33;;;;;;;2.63;1.40;;;10.10;99.90;;;;;;4967373;28;20447;-71
2023/01/12 19:10:52;;;;;;;1.77;1.50;;;10.00;99.90;;;;;;4967781;28;20566;-71
2023/01/12 19:18:48;;;;;;;2.27;1.53;;;10.10;99.90;;;;;;4968430;28;20608;-71
2023/01/12 19:29:28;;;;;;;10.63;2.00;;;10.10;99.90;;;;;;4967076;28;21411;-71
2023/01/12 19:31:55;;;;;;;2.87;1.53;;;10.10;99.90;;;;;;4967118;28;20491;-72
2023/01/12 19:34:25;;;;;;;2.47;1.70;;;10.10;99.90;;;;;;4966728;28;20846;-72